OKBO2: North Canadian River at Britton Rd at OKC, OK

Data processed at Thu May 23 2019 23:50


All information presented herein is the property of the government of the United States of America and may be revised or deleted at any time without prior notice.
Dissemination of this information without the expressed written consent of the Public Affairs Office, Tulsa District U.S. Army Corps of Engineers is strictly prohibited.
These data are gathered electronically and, as presented, have not undergone any form of quality control. These data are not guaranteed to be valid or correct.
Go to home page.
Go to station list.
Go to home page.

Upstream stations:

Downstream station:
Previous Day
Next Day
Current Day
    
SHEF ID:       OKBO2     North Canadian River at Britton
STATION TYPE:  

                STAGE  RIV-FLOW  WTR-TEMP   DIS-OXY   CONDUCT  BAT-LOAD
                   ft       cfs         F      mg/l   umho/cm      volt
              Ccp-Rev   Ccp-Rev   Ccp-Rev   Ccp-Rev   Ccp-Rev   Ccp-Rev
(US/Central)
05/23 00:00     17.90     13556     67.55      7.37       406     12.77
05/23 01:00     17.99     13766     67.64      7.35       419     12.77
05/23 02:00     18.00     13788     67.77      7.34       426     12.77
05/23 03:00     18.11     14030     67.93      7.34       430     12.71
05/23 04:00     18.03     13853     68.11      7.34       434     12.71
05/23 05:00     18.08     13964     68.29      7.34       436     12.71
05/23 06:00     18.01     13810     68.49      7.33       438     12.65
05/23 07:00     18.06     13920     68.65      7.33       439     12.65
05/23 08:00     18.00     13788     68.79      7.32       440     13.00
05/23 09:00     17.98     13744     68.95      7.33       444     13.24
05/23 10:00     17.92     13604     69.17      7.33       446     13.83
05/23 11:00     17.85     13437     69.40      7.30       447     13.83
05/23 12:00     17.71     13106     69.69      7.32       451     13.48
05/23 13:00     17.67     13012     69.96      7.42       452     13.30
05/23 14:00     17.50     12618     70.12      7.51       455     13.30
05/23 15:00     17.35     12277     70.43      7.53       456     13.30
05/23 16:00     17.17     11875     70.74      7.52       457     13.30
05/23 17:00     16.94     11372     70.99      7.51       452     13.30
05/23 18:00     16.61     10670     71.22      7.48       441     13.18
05/23 19:00     16.37     10165     71.31      7.47       435     13.30
05/23 20:00     16.17      9742     71.28      7.57       416     13.30
05/23 21:00     15.96      9297     71.13      7.62       399     13.07
05/23 22:00     15.86      9090     71.01      7.66       390     12.89
05/23 23:00     15.72      8804     70.88      7.68       386     12.83